Terminal Aerodrome Forecast
Issued by NWS

Home | Current Version | Previous Version | Text Only | Print | Product List | Glossary On
Versions: 1 2 3 4 5 6 7 8 9 10 11 12 13 14 15 16 17 18 19 20 21 22 23 24 25 26 27 28 29
694
FTUS42 KMHX 060540
TAFOAJ
TAF
KOAJ 060540Z 0606/0706 26004KT 6SM SHRA BKN007
     FM061500 28007KT P6SM VCSH BKN019
     FM061900 30007KT P6SM BKN025
     FM062300 00000KT P6SM SCT040
      AMD LTD TO CLD VIS AND WIND=

USA.gov is the U.S. government's official web portal to all federal, state and local government web resources and services.